Aérodrome :
LOGIN :

S'inscrire | Disclaimer

   EN    FR    IT 

 










Légende :    VFR   VFR Marginal   IFR   IFR Intensif   IFR Très Intensif
Visi : 
Plafond : 
>= 8 km
>= 3000ft
5 à 8 km
1000 à 3000 ft
1500m à 5 km
500 à 1000 ft
800 à 1500m
200 à 500 ft
< 800m
< 200 ft
Symboles :   Orages  Brouillard  Fortes neiges  Fortes précipitations  Vent > 20 kt
SIGMETs :   Divers  Orages  Givrage  Turbulence  Onde Orograph.  Cendres Volcan.







- Altitude de l'aérodrome : 1090 ft
- Code IATA : CFE
- Voir les cartes d'approche


LFLC - Clermont-Ferrand Auvergne

DERNIER METAR :
  • 100000Z AUTO 30009KT 270V340 9999 FEW035 BKN052 09/02 Q1027 NOSIG

METARs EXPIRÉS :
  • 092330Z AUTO 30009KT 260V340 9999 FEW032 BKN052 09/03 Q1027 NOSIG
  • 092300Z AUTO 28012KT 230V330 9999 FEW027 BKN056 BKN066 09/03 Q1026 TEMPO 30015G25KT
  • 092230Z AUTO 28010KT 9999 BKN058 09/03 Q1026 TEMPO 30015G25KT
  • 092200Z AUTO 29010KT 270V340 9999 FEW037 SCT049 OVC058 09/03 Q1026 TEMPO 30015G25KT
  • 092130Z AUTO 30011KT 250V330 9999 FEW033 BKN056 09/03 Q1025 TEMPO 30015G25KT

TAF TAF LFLC
Valide du 09 à 21h jusqu'au 10 à 21h UTC


092000Z 0921/1021 30010KT 9999 BKN035
PROB40
TEMPO 0921/0924 30015G25KT
ATIS : +33 4 73 62 74 38
Pas de NOTAMs connus pour ce terrain.
4 SIGMETs publiés pour la FIR Marseille (LFMM) :
 
Turbulence forte
LFMM SIGMET 28 VALID 092200/100200 LFPW
LFMM MARSEILLE FIR/UIR SEV TURB FCST WI N4600 E00700 - N4400 E00700 - N4315 E00930 - N4145 E00745 - N4515 E00500 - N4600 E00700 FL330/390 MOV NE 10KT NC=
Turbulence forte
LFMM SIGMET 27 VALID 092200/100200 LFPW
LFMM MARSEILLE FIR/UIR SEV TURB FCST WI N4400 E00700 - N4315 E00945 - N4115 E00945 - N4115 E00800 - N4300 E00515 - N4400 E00700 SFC/FL050 STNR NC=
Turbulence forte
LFMM SIGMET 26 VALID 092200/100200 LFPW
LFMM MARSEILLE FIR/UIR SEV TURB FCST WI N4615 E00700 - N4400 E00700 - N4330 E00630 - N4445 E00530 - N4615 E00700 SFC/FL120 STNR NC=
Turbulence forte
LFMM SIGMET 25 VALID 092200/100200 LFPW
LFMM MARSEILLE FIR/UIR SEV TURB FCST WI N4215 E00230 - N4345 E00245 - N4445 E00345 - N4430 E00415 - N4215 E00230 SFC/FL080 STNR NC=



MET'MAP, la Météo Aéronautique d'un coup d'oeil ! - Copyright ORBIFLY Décembre 2007 - Disclaimer

ORBIFLY MET'MAP TEAM :

Programmation & Développement : Alexandra Zaïnal
Conception & Développement : Baudouin d'Aumeries
Co-Programmation & Développement : Marc-Olivier Méhu
Soutien technique & logistique : Manuel Goepfert

Contact : metmap@orbifly.com




SOURCES & CREDITS :

   NOAA